地図

経路データ

SID SEASON NUMBER BASIN SUBBASIN NAME ISO_TIME NATURE LAT LON WMO_WIND WMO_PRES WMO_AGENCY TRACK_TYPE DIST2LAND LANDFALL IFLAG USA_AGENCY USA_ATCF_ID USA_LAT USA_LON USA_RECORD USA_STATUS USA_WIND USA_PRES USA_SSHS USA_R34_NE USA_R34_SE USA_R34_SW USA_R34_NW USA_R50_NE USA_R50_SE USA_R50_SW USA_R50_NW USA_R64_NE USA_R64_SE USA_R64_SW USA_R64_NW USA_POCI USA_ROCI USA_RMW USA_EYE TOKYO_LAT TOKYO_LON TOKYO_GRADE TOKYO_WIND TOKYO_PRES TOKYO_R50_DIR TOKYO_R50_LONG TOKYO_R50_SHORT TOKYO_R30_DIR TOKYO_R30_LONG TOKYO_R30_SHORT TOKYO_LAND CMA_LAT CMA_LON CMA_CAT CMA_WIND CMA_PRES HKO_LAT HKO_LON HKO_CAT HKO_WIND HKO_PRES NEWDELHI_LAT NEWDELHI_LON NEWDELHI_GRADE NEWDELHI_WIND NEWDELHI_PRES NEWDELHI_CI NEWDELHI_DP NEWDELHI_POCI REUNION_LAT REUNION_LON REUNION_TYPE REUNION_WIND REUNION_PRES REUNION_TNUM REUNION_CI REUNION_RMW REUNION_R34_NE REUNION_R34_SE REUNION_R34_SW REUNION_R34_NW REUNION_R50_NE REUNION_R50_SE REUNION_R50_SW REUNION_R50_NW REUNION_R64_NE REUNION_R64_SE REUNION_R64_SW REUNION_R64_NW BOM_LAT BOM_LON BOM_TYPE BOM_WIND BOM_PRES BOM_TNUM BOM_CI BOM_RMW BOM_R34_NE BOM_R34_SE BOM_R34_SW BOM_R34_NW BOM_R50_NE BOM_R50_SE BOM_R50_SW BOM_R50_NW BOM_R64_NE BOM_R64_SE BOM_R64_SW BOM_R64_NW BOM_ROCI BOM_POCI BOM_EYE BOM_POS_METHOD BOM_PRES_METHOD NADI_LAT NADI_LON NADI_CAT NADI_WIND NADI_PRES WELLINGTON_LAT WELLINGTON_LON WELLINGTON_WIND WELLINGTON_PRES DS824_LAT DS824_LON DS824_STAGE DS824_WIND DS824_PRES TD9636_LAT TD9636_LON TD9636_STAGE TD9636_WIND TD9636_PRES TD9635_LAT TD9635_LON TD9635_WIND TD9635_PRES TD9635_ROCI NEUMANN_LAT NEUMANN_LON NEUMANN_CLASS NEUMANN_WIND NEUMANN_PRES MLC_LAT MLC_LON MLC_CLASS MLC_WIND MLC_PRES USA_GUST BOM_GUST BOM_GUST_PER REUNION_GUST REUNION_GUST_PER USA_SEAHGT USA_SEARAD_NE USA_SEARAD_SE USA_SEARAD_SW USA_SEARAD_NW STORM_SPEED STORM_DIR
1974001S28075 1974 1 SI MM NOT_NAMED 1973-12-31 15:00:00 TS -27.5949 74.6887 spur-split 1896 1849 ______________ -1 11 333
1974001S28075 1974 1 SI MM NOT_NAMED 1973-12-31 18:00:00 TS -27.1000 74.4000 spur-split 1849 1806 O________OO___ jtwc_sh SH111974 -27.1000 74.4000 -1 -27.1000 74.4000 TC 25 -27.1000 74.4000 1 11 328
1974001S28075 1974 1 SI MM NOT_NAMED 1973-12-31 21:00:00 TS -26.7059 74.0642 spur-split 1806 1757 P________PP___ SH111974 -26.7427 74.0122 -1 -26.7427 74.0122 TC 25 -26.7204 74.0004 1 10 316
1974001S28075 1974 1 SI MM NOT_NAMED 1974-01-01 00:00:00 TS -26.3807 73.6281 spur-split 1748 1699 O________OP___ jtwc_sh SH111974 -26.4000 73.6000 -1 -26.4000 73.6000 TC 25 -26.3723 73.5818 1 10 307
1974001S28075 1974 1 SI MM NOT_NAMED 1974-01-01 03:00:00 TS -26.0883 73.1496 spur-split 1690 1635 P________PP___ SH111974 -26.0972 73.1373 -1 -26.0972 73.1373 TC 25 -26.0881 73.1224 1 10 297
1974001S28075 1974 1 SI MM NOT_NAMED 1974-01-01 06:00:00 TS -25.9000 72.6000 spur-split 1635 1575 O________OO___ jtwc_sh SH111974 -25.9000 72.6000 -1 -25.9000 72.6000 TC 25 -25.9000 72.6000 1 11 283
1974001S28075 1974 1 SI MM NOT_NAMED 1974-01-01 09:00:00 TS -25.8415 71.9820 spur-split 1575 1522 P________PP___ SH111974 -25.8475 71.9728 -1 -25.8475 71.9728 TC 25 -25.8296 72.0006 1 12 271
1974001S28075 1974 1 SI MM NOT_NAMED 1974-01-01 12:00:00 TS -25.8861 71.3155 spur-split 1513 1461 O________OP___ jtwc_sh SH111974 -25.9000 71.3000 -1 -25.9000 71.3000 TC 25 -25.8582 71.3464 1 12 264
1974001S28075 1974 1 SI MM NOT_NAMED 1974-01-01 15:00:00 TS -25.9707 70.6513 spur-split 1461 1401 P________PP___ SH111974 -25.9773 70.6425 -1 -25.9773 70.6425 TC 25 -25.9576 70.6689 1 12 260
1974001S28075 1974 1 SI MM NOT_NAMED 1974-01-01 18:00:00 TS -26.1000 70.0000 spur-split 1401 1352 O________OO___ jtwc_sh SH111974 -26.1000 70.0000 -1 -26.1000 70.0000 TC 25 -26.1000 70.0000 1 12 257
1974001S28075 1974 1 SI MM NOT_NAMED 1974-01-01 21:00:00 TS -26.2347 69.3781 spur-split 1352 1308 P________PP___ SH111974 -26.2347 69.3923 -1 -26.2347 69.3923 TC 25 -26.2349 69.3498 1 11 255
1974001S28075 1974 1 SI MM NOT_NAMED 1974-01-02 00:00:00 TS -26.4017 68.7728 spur-split 1308 1267 O________OP___ jtwc_sh SH111974 -26.4000 68.8000 -1 -26.4000 68.8000 TC 25 -26.4051 68.7184 1 11 252
1974001S28075 1974 1 SI MM NOT_NAMED 1974-01-02 03:00:00 TS -26.5942 68.1609 spur-split 1267 1228 P________PP___ SH111974 -26.5925 68.1775 -1 -26.5925 68.1775 TC 25 -26.5976 68.1278 1 11 249
1974001S28075 1974 1 SI MM NOT_NAMED 1974-01-02 06:00:00 TS -26.8000 67.6000 spur-split 1228 1200 O________OO___ jtwc_sh SH111974 -26.8000 67.6000 -1 -26.8000 67.6000 TC 25 -26.8000 67.6000 1 10 247
1974001S28075 1974 1 SI MM NOT_NAMED 1974-01-02 09:00:00 TS -26.9890 67.1149 spur-split 1200 1181 P________PP___ SH111974 -26.9998 67.1049 -1 -26.9998 67.1049 TC 25 -26.9674 67.1351 1 9 244
1974001S28075 1974 1 SI MM NOT_NAMED 1974-01-02 12:00:00 TS -27.1821 66.7121 spur-split 1181 1164 O________OP___ jtwc_sh SH111974 -27.2000 66.7000 -1 -27.2000 66.7000 TC 25 -27.1464 66.7364 1 8 240
1974001S28075 1974 1 SI MM NOT_NAMED 1974-01-02 15:00:00 TS -27.3739 66.3780 spur-split 1172 1163 P________PP___ SH111974 -27.3848 66.3697 -1 -27.3848 66.3697 TC 25 -27.3522 66.3946 1 7 232
1974001S28075 1974 1 SI MM NOT_NAMED 1974-01-02 18:00:00 TS -27.6000 66.1000 spur-split 1163 1163 O________OO___ jtwc_sh SH111974 -27.6000 66.1000 -1 -27.6000 66.1000 TC 25 -27.6000 66.1000 1 7 224
1974001S28075 1974 1 SI MM NOT_NAMED 1974-01-02 21:00:00 TS -27.8800 65.8376 spur-split 1164 1164 P________PP___ SH111974 -27.8700 65.8349 -1 -27.8700 65.8349 TC 25 -27.9001 65.8431 1 8 215
1974001S28075 1974 1 SI MM NOT_NAMED 1974-01-03 00:00:00 TS -28.2143 65.6046 spur-split 1174 1174 O________OP___ jtwc_sh SH111974 -28.2000 65.6000 -1 -28.2000 65.6000 TC 25 -28.2430 65.6139 1 8 209
1974001S28075 1974 1 SI MM NOT_NAMED 1974-01-03 03:00:00 TS -28.5948 65.3961 spur-split 1192 1192 P________PP___ SH111974 -28.5851 65.3928 -1 -28.5851 65.3928 TC 25 -28.6144 65.4028 1 9 204
1974001S28075 1974 1 SI MM NOT_NAMED 1974-01-03 06:00:00 TS -29.0000 65.2000 spur-split 1213 O________OO___ jtwc_sh SH111974 -29.0000 65.2000 -1 -29.0000 65.2000 TC 25 -29.0000 65.2000 1 9 203

IBTrACS Databaseについて

本データベースは、米国NOAAが公開する1842年以降の世界の熱帯低気圧のベストトラックデータアーカイブInternational Best Track Archive for Climate Stewardship (IBTrACS)を、ウェブで閲覧しやすい形式に変換したものです。

最終更新日:2021-10-25